Terminal Aerodrome Forecast
Issued by NWS Louisville, KY

Home | Current Version | Previous Version | Text Only | Print | Product List | Glossary On
Versions: 1 2 3 4 5 6 7 8 9 10 11 12 13 14 15 16 17 18 19 20
000
FTUS43 KLMK 291100
TAFBWG
TAF
KBWG 291120Z 2912/3012 20015KT P6SM VCSH BKN080 WS018/21050KT
     FM291500 20014G24KT P6SM VCSH BKN050
     FM291900 27011G18KT P6SM BKN028
     FM300100 31008KT P6SM BKN025=

USA.gov is the U.S. government's official web portal to all federal, state and local government web resources and services.